createdAt,value
2023-03-01T00:01:34.407Z,103000.03
2023-03-01T00:04:01.430Z,103004.03
2023-03-01T00:06:29.405Z,103002.31
2023-03-01T00:08:56.472Z,102999.50
2023-03-01T00:11:25.341Z,102995.56
2023-03-01T00:13:53.427Z,103007.94
2023-03-01T00:16:22.209Z,103006.28
2023-03-01T00:18:49.410Z,103019.75
2023-03-01T00:21:16.460Z,103017.78
2023-03-01T00:23:43.798Z,103022.81
2023-03-01T00:26:12.470Z,103024.19
2023-03-01T00:28:39.496Z,103025.28
2023-03-01T00:31:07.735Z,103020.22
2023-03-01T00:33:34.707Z,103024.72
2023-03-01T00:36:02.073Z,103024.41
2023-03-01T00:38:29.281Z,103019.31
2023-03-01T00:40:58.445Z,103022.38
2023-03-01T00:43:25.440Z,103011.66
2023-03-01T00:45:54.775Z,103016.38
2023-03-01T00:48:21.769Z,103016.69
2023-03-01T00:50:48.819Z,103019.50
2023-03-01T00:53:18.853Z,103010.44
2023-03-01T00:55:45.807Z,103009.88
2023-03-01T00:58:15.151Z,102998.28
2023-03-01T01:00:42.298Z,103001.91
2023-03-01T01:03:09.267Z,103004.16
2023-03-01T01:05:36.685Z,102998.47
2023-03-01T01:08:03.641Z,103004.09
2023-03-01T01:10:34.066Z,103003.78
2023-03-01T01:13:01.119Z,103003.78
2023-03-01T01:15:28.145Z,103006.84
2023-03-01T01:17:54.994Z,103004.56
2023-03-01T01:20:22.224Z,103005.94
2023-03-01T01:22:49.149Z,103002.50
2023-03-01T01:25:16.073Z,102993.47
2023-03-01T01:27:43.023Z,102999.03
2023-03-01T01:30:10.591Z,103000.97
2023-03-01T01:32:37.692Z,103003.75
2023-03-01T01:35:04.788Z,103001.75
2023-03-01T01:37:34.526Z,103000.03
2023-03-01T01:40:02.228Z,102992.34
2023-03-01T01:42:28.989Z,102990.03
2023-03-01T01:45:01.040Z,102994.00
2023-03-01T01:47:34.028Z,102989.16
2023-03-01T01:50:01.075Z,102985.75
2023-03-01T01:52:31.293Z,102985.97
2023-03-01T01:55:01.081Z,102981.94
2023-03-01T01:57:31.053Z,102977.72
2023-03-01T02:00:00.066Z,102980.78
2023-03-01T02:02:27.485Z,102976.00
2023-03-01T02:04:56.927Z,102961.03
2023-03-01T02:07:24.906Z,102955.09
2023-03-01T02:09:53.778Z,102962.19
2023-03-01T02:12:24.267Z,102955.38
2023-03-01T02:14:53.239Z,102947.47
2023-03-01T02:17:20.894Z,102949.38
2023-03-01T02:19:54.975Z,102953.28
2023-03-01T02:22:23.206Z,102952.13
2023-03-01T02:24:53.120Z,102946.13
2023-03-01T02:27:25.855Z,102939.09
2023-03-01T02:29:52.653Z,102943.53
2023-03-01T02:32:26.425Z,102942.94
2023-03-01T02:34:55.083Z,102944.84
2023-03-01T02:37:25.981Z,102938.63
2023-03-01T02:39:58.797Z,102929.59
2023-03-01T02:42:28.276Z,102934.66
2023-03-01T02:44:55.095Z,102934.56
2023-03-01T02:47:21.864Z,102938.47
2023-03-01T02:49:48.710Z,102935.09
2023-03-01T02:52:18.499Z,102927.13
2023-03-01T02:54:48.258Z,102926.28
2023-03-01T02:57:15.146Z,102918.72
2023-03-01T02:59:45.680Z,102917.81
2023-03-01T03:02:15.937Z,102910.75
2023-03-01T03:04:42.667Z,102909.31
2023-03-01T03:07:09.451Z,102910.94
2023-03-01T03:09:36.222Z,102908.13
2023-03-01T03:12:02.994Z,102908.38
2023-03-01T03:14:29.832Z,102904.13
2023-03-01T03:16:56.610Z,102901.59
2023-03-01T03:19:25.586Z,102901.00
2023-03-01T03:21:52.359Z,102893.94
2023-03-01T03:24:19.574Z,102898.09
2023-03-01T03:26:46.450Z,102904.00
2023-03-01T03:29:13.165Z,102891.31
2023-03-01T03:31:39.997Z,102899.16
2023-03-01T03:34:06.812Z,102892.09
2023-03-01T03:36:33.553Z,102890.13
2023-03-01T03:39:00.440Z,102883.09
2023-03-01T03:41:27.174Z,102884.44
2023-03-01T03:43:53.873Z,102881.06
2023-03-01T03:46:20.574Z,102887.16
2023-03-01T03:48:47.360Z,102882.69
2023-03-01T03:51:15.814Z,102883.78
2023-03-01T03:53:43.054Z,102876.72
2023-03-01T03:56:09.761Z,102880.03
2023-03-01T03:58:37.055Z,102874.66
2023-03-01T04:01:06.033Z,102876.63
2023-03-01T04:03:33.241Z,102865.94
2023-03-01T04:06:00.634Z,102867.31
2023-03-01T04:08:28.084Z,102864.75
2023-03-01T04:10:59.227Z,102868.66
2023-03-01T04:13:26.474Z,102871.13
2023-03-01T04:15:54.342Z,102862.09
2023-03-01T04:18:22.039Z,102855.06
2023-03-01T04:20:49.123Z,102859.81
2023-03-01T04:23:17.419Z,102848.03
2023-03-01T04:25:47.773Z,102853.63
2023-03-01T04:28:14.594Z,102849.38
2023-03-01T04:30:42.539Z,102846.56
2023-03-01T04:33:10.195Z,102847.94
2023-03-01T04:35:37.952Z,102846.22
2023-03-01T04:38:05.679Z,102849.28
2023-03-01T04:40:32.861Z,102846.75
2023-03-01T04:42:59.637Z,102839.41
2023-03-01T04:45:28.990Z,102843.09
2023-03-01T04:47:59.482Z,102837.09
2023-03-01T04:50:26.975Z,102841.25
2023-03-01T04:52:54.054Z,102842.38
2023-03-01T04:55:20.780Z,102837.84
2023-03-01T04:57:47.505Z,102840.06
2023-03-01T05:00:18.177Z,102831.91
2023-03-01T05:02:44.883Z,102830.22
2023-03-01T05:05:11.820Z,102829.63
2023-03-01T05:07:38.520Z,102829.63
2023-03-01T05:10:05.541Z,102822.56
2023-03-01T05:12:32.452Z,102826.22
2023-03-01T05:15:01.424Z,102826.50
2023-03-01T05:17:28.255Z,102838.56
2023-03-01T05:19:56.755Z,102824.19
2023-03-01T05:22:25.970Z,102828.09
2023-03-01T05:24:53.845Z,102827.50
2023-03-01T05:27:23.260Z,102829.44
2023-03-01T05:29:52.691Z,102828.03
2023-03-01T05:32:19.489Z,102817.06
2023-03-01T05:34:48.465Z,102820.09
2023-03-01T05:37:15.895Z,102816.44
2023-03-01T05:39:43.125Z,102814.75
2023-03-01T05:42:12.616Z,102807.47
2023-03-01T05:44:39.506Z,102809.66
2023-03-01T05:47:06.230Z,102809.94
2023-03-01T05:49:33.420Z,102804.56
2023-03-01T05:52:00.133Z,102811.25
2023-03-01T05:54:26.924Z,102810.69
2023-03-01T05:56:53.857Z,102813.47
2023-03-01T05:59:20.640Z,102806.19
2023-03-01T06:01:47.423Z,102806.69
2023-03-01T06:04:16.407Z,102804.97
2023-03-01T06:06:43.358Z,102811.94
2023-03-01T06:09:11.047Z,102811.94
2023-03-01T06:11:38.200Z,102808.53
2023-03-01T06:14:05.609Z,102811.59
2023-03-01T06:16:32.648Z,102807.94
2023-03-01T06:18:59.574Z,102810.16
2023-03-01T06:21:28.721Z,102811.25
2023-03-01T06:23:55.445Z,102811.50
2023-03-01T06:26:22.419Z,102811.75
2023-03-01T06:28:49.289Z,102819.31
2023-03-01T06:31:16.064Z,102813.34
2023-03-01T06:33:42.922Z,102819.78
2023-03-01T06:36:11.360Z,102821.16
2023-03-01T06:38:38.325Z,102827.00
2023-03-01T06:41:05.487Z,102832.00
2023-03-01T06:43:32.400Z,102831.16
2023-03-01T06:45:59.274Z,102822.16
2023-03-01T06:48:26.050Z,102835.28
2023-03-01T06:50:52.861Z,102824.72
2023-03-01T06:53:22.205Z,102821.06
2023-03-01T06:55:51.364Z,102830.81
2023-03-01T06:58:18.376Z,102829.78
2023-03-01T07:00:45.518Z,102829.91
2023-03-01T07:03:14.588Z,102831.44
2023-03-01T07:05:41.502Z,102826.69
2023-03-01T07:08:08.286Z,102834.34
2023-03-01T07:10:35.090Z,102832.25
2023-03-01T07:13:01.954Z,102836.00
2023-03-01T07:15:28.968Z,102832.75
2023-03-01T07:17:55.735Z,102838.38
2023-03-01T07:20:26.811Z,102832.91
2023-03-01T07:22:54.577Z,102842.94
2023-03-01T07:25:21.492Z,102840.00
2023-03-01T07:27:51.634Z,102838.38
2023-03-01T07:30:18.710Z,102833.94
2023-03-01T07:32:46.681Z,102839.66
2023-03-01T07:35:13.603Z,102845.63
2023-03-01T07:37:40.459Z,102843.44
2023-03-01T07:40:08.096Z,102839.34
2023-03-01T07:42:35.045Z,102841.38
2023-03-01T07:45:01.930Z,102826.84
2023-03-01T07:47:28.831Z,102834.75
2023-03-01T07:49:55.733Z,102824.47
2023-03-01T07:52:22.650Z,102829.31
2023-03-01T07:54:49.551Z,102824.88
2023-03-01T07:57:18.815Z,102820.69
2023-03-01T07:59:45.893Z,102820.19
2023-03-01T08:02:12.875Z,102817.72
2023-03-01T08:04:39.753Z,102823.91
2023-03-01T08:07:12.389Z,102831.53
2023-03-01T08:09:39.578Z,102836.38
2023-03-01T08:12:06.838Z,102827.47
2023-03-01T08:14:34.392Z,102824.97
2023-03-01T08:17:01.248Z,102828.97
2023-03-01T08:19:29.349Z,102826.22
2023-03-01T08:21:56.468Z,102821.78
2023-03-01T08:24:24.108Z,102809.78
2023-03-01T08:26:51.225Z,102813.75
2023-03-01T08:29:18.278Z,102807.63
2023-03-01T08:31:45.550Z,102801.53
2023-03-01T08:34:14.513Z,102807.19
2023-03-01T08:36:42.892Z,102810.09
2023-03-01T08:39:11.596Z,102812.66
2023-03-01T08:41:41.862Z,102806.00
2023-03-01T08:44:09.126Z,102809.38
2023-03-01T08:46:37.703Z,102800.69
2023-03-01T08:49:05.348Z,102800.16
2023-03-01T08:51:34.030Z,102802.47
2023-03-01T08:54:00.857Z,102799.13
2023-03-01T08:56:27.731Z,102796.91
2023-03-01T08:58:54.792Z,102793.25
2023-03-01T09:01:21.969Z,102797.53
2023-03-01T09:03:49.103Z,102800.66
2023-03-01T09:06:17.001Z,102799.53
2023-03-01T09:08:45.414Z,102790.84
2023-03-01T09:11:13.370Z,102789.22
2023-03-01T09:13:42.987Z,102786.09
2023-03-01T09:16:12.623Z,102792.06
2023-03-01T09:18:39.677Z,102792.88
2023-03-01T09:21:09.224Z,102780.81
2023-03-01T09:23:37.905Z,102777.72
2023-03-01T09:26:05.074Z,102771.00
2023-03-01T09:28:34.325Z,102774.06
2023-03-01T09:31:03.857Z,102773.22
2023-03-01T09:33:31.670Z,102763.97
2023-03-01T09:35:59.239Z,102774.63
2023-03-01T09:38:27.126Z,102766.13
2023-03-01T09:40:54.446Z,102766.38
2023-03-01T09:43:27.770Z,102768.09
2023-03-01T09:45:56.546Z,102766.09
2023-03-01T09:48:25.820Z,102761.00
2023-03-01T09:50:53.083Z,102762.38
2023-03-01T09:53:21.558Z,102751.97
2023-03-01T09:55:51.735Z,102749.16
2023-03-01T09:58:21.778Z,102743.78
2023-03-01T10:00:50.495Z,102753.56
2023-03-01T10:03:18.254Z,102747.41
2023-03-01T10:05:51.462Z,102753.88
2023-03-01T10:08:21.887Z,102751.31
2023-03-01T10:10:51.999Z,102747.41
2023-03-01T10:13:19.259Z,102744.00
2023-03-01T10:15:50.224Z,102738.91
2023-03-01T10:18:20.508Z,102737.22
2023-03-01T10:20:53.681Z,102734.09
2023-03-01T10:23:21.073Z,102745.00
2023-03-01T10:25:54.400Z,102745.53
2023-03-01T10:28:26.593Z,102735.44
2023-03-01T10:30:54.413Z,102747.16
2023-03-01T10:33:24.934Z,102742.94
2023-03-01T10:35:52.802Z,102754.72
2023-03-01T10:38:21.826Z,102738.38
2023-03-01T10:40:51.844Z,102736.41
2023-03-01T10:43:19.056Z,102733.28
2023-03-01T10:45:46.119Z,102733.19
2023-03-01T10:48:15.476Z,102735.69
2023-03-01T10:50:44.142Z,102732.28
2023-03-01T10:53:14.230Z,102734.53
2023-03-01T10:55:41.397Z,102723.81
2023-03-01T10:58:08.638Z,102722.63
2023-03-01T11:00:47.168Z,102716.16
2023-03-01T11:03:15.618Z,102721.72
2023-03-01T11:05:45.526Z,102718.59
2023-03-01T11:08:13.173Z,102704.56
2023-03-01T11:10:40.143Z,102703.16
2023-03-01T11:13:09.358Z,102695.25
2023-03-01T11:15:36.379Z,102700.81
2023-03-01T11:18:13.837Z,102696.31
2023-03-01T11:20:41.538Z,102689.84
2023-03-01T11:23:12.075Z,102695.69
2023-03-01T11:25:40.980Z,102684.47
2023-03-01T11:28:12.025Z,102691.78
2023-03-01T11:30:42.777Z,102684.16
2023-03-01T11:33:17.228Z,102679.34
2023-03-01T11:35:47.219Z,102668.13
2023-03-01T11:38:18.030Z,102667.28
2023-03-01T11:40:48.439Z,102662.19
2023-03-01T11:43:20.489Z,102659.06
2023-03-01T11:45:50.758Z,102658.72
2023-03-01T11:48:20.688Z,102658.16
2023-03-01T11:50:48.718Z,102657.84
2023-03-01T11:53:18.969Z,102650.78
2023-03-01T11:55:48.878Z,102644.59
2023-03-01T11:58:24.930Z,102643.16
2023-03-01T12:00:52.229Z,102635.34
2023-03-01T12:03:19.410Z,102632.72
2023-03-01T12:05:50.527Z,102640.28
2023-03-01T12:08:21.006Z,102635.75
2023-03-01T12:10:51.378Z,102627.88
2023-03-01T12:13:19.739Z,102624.75
2023-03-01T12:15:46.958Z,102616.34
2023-03-01T12:18:17.045Z,102604.53
2023-03-01T12:20:53.600Z,102606.50
2023-03-01T12:23:24.692Z,102607.84
2023-03-01T12:25:54.854Z,102603.34
2023-03-01T12:28:24.836Z,102594.38
2023-03-01T12:30:55.855Z,102591.81
2023-03-01T12:33:25.902Z,102589.53
2023-03-01T12:35:55.985Z,102585.88
2023-03-01T12:38:26.742Z,102580.78
2023-03-01T12:40:56.678Z,102572.66
2023-03-01T12:43:27.044Z,102569.06
2023-03-01T12:45:57.037Z,102569.63
2023-03-01T12:48:26.309Z,102560.44
2023-03-01T12:50:57.522Z,102564.19
2023-03-01T12:53:25.998Z,102557.81
2023-03-01T12:55:55.904Z,102541.91
2023-03-01T12:58:28.348Z,102543.66
2023-03-01T13:01:00.029Z,102531.38
2023-03-01T13:03:32.773Z,102516.84
2023-03-01T13:06:02.807Z,102523.13
2023-03-01T13:08:34.710Z,102521.78
2023-03-01T13:11:03.833Z,102517.66
2023-03-01T13:13:31.304Z,102514.88
2023-03-01T13:15:58.660Z,102514.66
2023-03-01T13:18:26.827Z,102518.63
2023-03-01T13:20:55.670Z,102515.03
2023-03-01T13:23:22.829Z,102508.59
2023-03-01T13:25:52.833Z,102511.72
2023-03-01T13:28:22.802Z,102508.13
2023-03-01T13:30:49.732Z,102494.97
2023-03-01T13:33:19.919Z,102495.28
2023-03-01T13:35:46.914Z,102491.97
2023-03-01T13:38:16.930Z,102495.06
2023-03-01T13:40:46.914Z,102496.22
2023-03-01T13:43:17.282Z,102506.63
2023-03-01T13:45:44.447Z,102494.84
2023-03-01T13:48:16.725Z,102495.19
2023-03-01T13:50:48.007Z,102494.34
2023-03-01T13:53:18.997Z,102484.53
2023-03-01T13:55:47.657Z,102482.31
2023-03-01T13:58:17.898Z,102476.69
2023-03-01T14:00:44.757Z,102481.75
2023-03-01T14:03:14.195Z,102476.13
2023-03-01T14:05:42.096Z,102473.88
2023-03-01T14:08:12.106Z,102471.06
2023-03-01T14:10:46.370Z,102456.50
2023-03-01T14:13:16.693Z,102458.44
2023-03-01T14:15:49.154Z,102447.19
2023-03-01T14:18:19.152Z,102449.44
2023-03-01T14:20:53.111Z,102443.56
2023-03-01T14:23:22.534Z,102437.09
2023-03-01T14:25:50.114Z,102436.50
2023-03-01T14:28:18.593Z,102428.38
2023-03-01T14:30:47.023Z,102433.41
2023-03-01T14:33:17.038Z,102437.63
2023-03-01T14:35:43.881Z,102434.53
2023-03-01T14:38:21.768Z,102420.75
2023-03-01T14:40:52.548Z,102421.31
2023-03-01T14:43:21.677Z,102415.94
2023-03-01T14:45:50.110Z,102415.38
2023-03-01T14:48:17.798Z,102413.69
2023-03-01T14:50:46.279Z,102408.63
2023-03-01T14:53:18.613Z,102402.16
2023-03-01T14:55:47.293Z,102403.56
2023-03-01T14:58:16.634Z,102397.34
2023-03-01T15:00:49.794Z,102388.13
2023-03-01T15:03:25.123Z,102388.63
2023-03-01T15:05:52.335Z,102386.69
2023-03-01T15:08:20.523Z,102385.78
2023-03-01T15:10:50.496Z,102380.47
2023-03-01T15:13:20.423Z,102379.63
2023-03-01T15:15:49.259Z,102377.34
2023-03-01T15:18:19.515Z,102378.50
2023-03-01T15:20:47.000Z,102376.78
2023-03-01T15:23:19.816Z,102370.59
2023-03-01T15:25:46.945Z,102366.94
2023-03-01T15:28:21.900Z,102357.06
2023-03-01T15:30:56.718Z,102351.72
2023-03-01T15:33:23.992Z,102350.88
2023-03-01T15:35:54.580Z,102348.88
2023-03-01T15:38:27.049Z,102344.41
2023-03-01T15:40:54.372Z,102338.78
2023-03-01T15:43:24.455Z,102339.03
2023-03-01T15:45:59.566Z,102338.47
2023-03-01T15:48:27.528Z,102343.22
2023-03-01T15:50:58.205Z,102334.81
2023-03-01T15:53:25.521Z,102329.72
2023-03-01T15:55:52.442Z,102318.47
2023-03-01T15:58:20.624Z,102315.97
2023-03-01T16:01:00.679Z,102312.59
2023-03-01T16:03:28.006Z,102309.50
2023-03-01T16:05:55.044Z,102301.94
2023-03-01T16:08:21.965Z,102304.75
2023-03-01T16:10:52.121Z,102307.78
2023-03-01T16:13:19.140Z,102304.41
2023-03-01T16:16:06.641Z,102303.81
2023-03-01T16:18:33.642Z,102302.69
2023-03-01T16:21:01.655Z,102309.97
2023-03-01T16:23:28.478Z,102301.53
2023-03-01T16:25:55.372Z,102300.72
2023-03-01T16:28:22.324Z,102300.19
2023-03-01T16:30:50.454Z,102287.84
2023-03-01T16:33:33.376Z,102290.94
2023-03-01T16:36:03.362Z,102290.13
2023-03-01T16:38:32.436Z,102291.00
2023-03-01T16:40:59.275Z,102291.59
2023-03-01T16:43:26.416Z,102289.13
2023-03-01T16:45:53.614Z,102295.34
2023-03-01T16:48:21.561Z,102291.72
2023-03-01T16:51:00.779Z,102292.88
2023-03-01T16:53:42.648Z,102301.31
2023-03-01T16:56:15.114Z,102294.88
2023-03-01T16:58:43.693Z,102289.28
2023-03-01T17:01:13.443Z,102291.25
2023-03-01T17:03:41.260Z,102287.88
2023-03-01T17:06:09.993Z,102289.88
2023-03-01T17:08:38.058Z,102289.03
2023-03-01T17:11:06.280Z,102291.00
2023-03-01T17:13:33.424Z,102282.03
2023-03-01T17:16:00.772Z,102280.66
2023-03-01T17:18:27.822Z,102281.78
2023-03-01T17:21:10.918Z,102280.34
2023-03-01T17:23:45.971Z,102273.09
2023-03-01T17:26:32.792Z,102276.19
2023-03-01T17:29:22.409Z,102276.19
2023-03-01T17:32:03.770Z,102268.03
2023-03-01T17:34:32.404Z,102261.84
2023-03-01T17:39:43.212Z,102277.59
2023-03-01T17:42:10.621Z,102270.00
2023-03-01T17:44:40.342Z,102276.22
2023-03-01T17:47:08.905Z,102269.47
2023-03-01T17:49:35.811Z,102273.72
2023-03-01T17:52:02.989Z,102273.13
2023-03-01T17:54:36.715Z,102269.22
2023-03-01T17:57:08.710Z,102272.28
2023-03-01T17:59:54.962Z,102275.38
2023-03-01T18:02:22.147Z,102282.69
2023-03-01T18:04:49.206Z,102284.66
2023-03-01T18:07:27.434Z,102288.03
2023-03-01T18:09:54.877Z,102297.31
2023-03-01T18:12:22.470Z,102299.53
2023-03-01T18:14:53.832Z,102294.19
2023-03-01T18:17:24.821Z,102293.91
2023-03-01T18:19:51.938Z,102290.84
2023-03-01T18:22:19.119Z,102292.81
2023-03-01T18:24:46.164Z,102295.91
2023-03-01T18:27:13.458Z,102296.47
2023-03-01T18:29:40.438Z,102296.19
2023-03-01T18:32:07.613Z,102294.47
2023-03-01T18:34:35.399Z,102292.25
2023-03-01T18:37:22.233Z,102297.03
2023-03-01T18:39:51.490Z,102293.09
2023-03-01T18:42:20.822Z,102288.88
2023-03-01T18:44:48.287Z,102296.19
2023-03-01T18:47:21.239Z,102304.91
2023-03-01T18:49:48.322Z,102304.63
2023-03-01T18:52:15.591Z,102293.09
2023-03-01T18:54:42.471Z,102293.91
2023-03-01T18:57:09.924Z,102294.75
2023-03-01T18:59:36.985Z,102282.13
2023-03-01T19:02:04.132Z,102294.50
2023-03-01T19:04:33.597Z,102293.91
2023-03-01T19:07:04.757Z,102297.03
2023-03-01T19:09:31.988Z,102294.50
2023-03-01T19:12:02.203Z,102294.75
2023-03-01T19:14:30.333Z,102302.38
2023-03-01T19:17:03.698Z,102295.91
2023-03-01T19:19:31.550Z,102305.47
2023-03-01T19:22:05.678Z,102299.84
2023-03-01T19:24:35.055Z,102303.78
2023-03-01T19:27:04.920Z,102290.84
2023-03-01T19:29:32.676Z,102302.38
2023-03-01T19:32:01.916Z,102296.19
2023-03-01T19:34:31.500Z,102293.38
2023-03-01T19:37:03.876Z,102309.41
2023-03-01T19:39:33.244Z,102291.13
2023-03-01T19:42:00.461Z,102298.16
2023-03-01T19:44:30.082Z,102295.63
2023-03-01T19:47:03.719Z,102292.81
2023-03-01T19:49:33.284Z,102294.22
2023-03-01T19:52:03.596Z,102290.00
2023-03-01T19:54:32.390Z,102296.47
2023-03-01T19:57:03.453Z,102290.28
2023-03-01T19:59:32.296Z,102293.66
2023-03-01T20:02:01.357Z,102293.09
2023-03-01T20:04:29.039Z,102294.78
2023-03-01T20:06:59.321Z,102304.34
2023-03-01T20:09:27.148Z,102310.53
2023-03-01T20:11:54.360Z,102309.13
2023-03-01T20:14:23.887Z,102310.50
2023-03-01T20:16:51.777Z,102315.03
2023-03-01T20:19:18.761Z,102311.63
2023-03-01T20:21:45.845Z,102312.78
2023-03-01T20:24:12.829Z,102317.84
2023-03-01T20:26:41.191Z,102312.47
2023-03-01T20:29:09.104Z,102315.31
2023-03-01T20:31:36.369Z,102321.19
2023-03-01T20:34:04.778Z,102321.47
2023-03-01T20:36:32.628Z,102322.88
2023-03-01T20:38:59.896Z,102317.53
2023-03-01T20:41:27.091Z,102319.78
2023-03-01T20:43:56.528Z,102322.03
2023-03-01T20:46:25.947Z,102322.56
2023-03-01T20:48:53.674Z,102326.81
2023-03-01T20:51:21.193Z,102319.22
2023-03-01T20:53:48.413Z,102314.13
2023-03-01T20:56:16.244Z,102314.13
2023-03-01T20:58:43.638Z,102313.28
2023-03-01T21:01:12.330Z,102316.66
2023-03-01T21:03:39.489Z,102326.22
2023-03-01T21:06:06.909Z,102321.72
2023-03-01T21:08:36.953Z,102320.06
2023-03-01T21:11:07.458Z,102321.19
2023-03-01T21:13:35.133Z,102329.63
2023-03-01T21:16:04.909Z,102324.28
2023-03-01T21:18:33.362Z,102332.16
2023-03-01T21:21:02.801Z,102327.94
2023-03-01T21:23:30.490Z,102322.03
2023-03-01T21:26:00.490Z,102327.94
2023-03-01T21:28:29.585Z,102322.63
2023-03-01T21:30:58.662Z,102328.25
2023-03-01T21:33:25.514Z,102327.94
2023-03-01T21:35:52.517Z,102330.75
2023-03-01T21:38:19.646Z,102331.31
2023-03-01T21:40:46.408Z,102326.81
2023-03-01T21:43:13.264Z,102331.03
2023-03-01T21:45:40.338Z,102336.09
2023-03-01T21:48:07.364Z,102332.44
2023-03-01T21:50:34.846Z,102331.03
2023-03-01T21:53:05.612Z,102334.41
2023-03-01T21:55:34.387Z,102330.16
2023-03-01T21:58:01.331Z,102329.03
2023-03-01T22:00:28.756Z,102318.38
2023-03-01T22:02:58.500Z,102329.03
2023-03-01T22:05:25.477Z,102331.63
2023-03-01T22:07:52.428Z,102333.84
2023-03-01T22:10:27.377Z,102322.31
2023-03-01T22:12:54.990Z,102331.31
2023-03-01T22:15:22.191Z,102329.06
2023-03-01T22:17:49.809Z,102335.53
2023-03-01T22:20:17.070Z,102342.00
2023-03-01T22:22:44.111Z,102338.88
2023-03-01T22:25:11.856Z,102341.72
2023-03-01T22:27:38.890Z,102338.88
2023-03-01T22:30:08.556Z,102336.94
2023-03-01T22:32:35.716Z,102342.00
2023-03-01T22:35:02.776Z,102349.88
2023-03-01T22:37:30.108Z,102351.56
2023-03-01T22:39:57.816Z,102356.34
2023-03-01T22:42:24.786Z,102345.63
2023-03-01T22:44:53.994Z,102352.09
2023-03-01T22:47:22.769Z,102355.78
2023-03-01T22:49:51.875Z,102351.84
2023-03-01T22:52:20.741Z,102351.25
2023-03-01T22:54:48.352Z,102352.38
2023-03-01T22:57:20.500Z,102346.47
2023-03-01T22:59:48.719Z,102345.59
2023-03-01T23:02:16.488Z,102348.69
2023-03-01T23:04:44.284Z,102345.59
2023-03-01T23:07:13.785Z,102348.13
2023-03-01T23:09:42.232Z,102347.56
2023-03-01T23:12:12.650Z,102349.25
2023-03-01T23:14:41.110Z,102351.75
2023-03-01T23:17:09.199Z,102352.31
2023-03-01T23:19:36.236Z,102352.31
2023-03-01T23:22:03.113Z,102335.16
2023-03-01T23:24:32.258Z,102343.59
2023-03-01T23:27:03.071Z,102344.13
2023-03-01T23:29:32.807Z,102334.00
2023-03-01T23:32:00.530Z,102338.50
2023-03-01T23:34:27.704Z,102342.75
2023-03-01T23:36:55.347Z,102336.81
2023-03-01T23:39:22.401Z,102333.44
2023-03-01T23:41:49.461Z,102346.41
2023-03-01T23:44:19.180Z,102343.59
2023-03-01T23:46:46.963Z,102335.16
2023-03-01T23:49:15.182Z,102335.44
2023-03-01T23:51:45.013Z,102335.16
2023-03-01T23:54:14.404Z,102338.25
2023-03-01T23:56:42.493Z,102334.31
2023-03-01T23:59:12.244Z,102321.63
